sensor_id;sensor_type;location;lat;lon;timestamp;pressure;altitude;pressure_sealevel;temperature;humidity
2673;BME280;1346;51.558;6.996;2022-10-31T00:00:43;101586.16;;;14.28;100.00
2673;BME280;1346;51.558;6.996;2022-10-31T00:03:11;101572.44;;;14.22;100.00
2673;BME280;1346;51.558;6.996;2022-10-31T00:05:41;101580.97;;;14.17;100.00
2673;BME280;1346;51.558;6.996;2022-10-31T00:08:08;101578.91;;;14.11;100.00
2673;BME280;1346;51.558;6.996;2022-10-31T00:10:38;101573.13;;;14.06;100.00
2673;BME280;1346;51.558;6.996;2022-10-31T00:13:05;101564.66;;;14.01;100.00
2673;BME280;1346;51.558;6.996;2022-10-31T00:15:33;101561.59;;;13.96;100.00
2673;BME280;1346;51.558;6.996;2022-10-31T00:18:00;101559.34;;;13.92;100.00
2673;BME280;1346;51.558;6.996;2022-10-31T00:20:29;101563.53;;;13.86;100.00
2673;BME280;1346;51.558;6.996;2022-10-31T00:22:58;101569.34;;;13.82;100.00
2673;BME280;1346;51.558;6.996;2022-10-31T00:25:25;101574.03;;;13.80;100.00
2673;BME280;1346;51.558;6.996;2022-10-31T00:27:53;101562.06;;;13.74;100.00
2673;BME280;1346;51.558;6.996;2022-10-31T00:30:20;101561.50;;;13.71;100.00
2673;BME280;1346;51.558;6.996;2022-10-31T00:32:47;101566.34;;;13.67;100.00
2673;BME280;1346;51.558;6.996;2022-10-31T00:35:14;101558.69;;;13.63;100.00
2673;BME280;1346;51.558;6.996;2022-10-31T00:37:42;101554.63;;;13.59;100.00
2673;BME280;1346;51.558;6.996;2022-10-31T00:40:11;101560.34;;;13.56;100.00
2673;BME280;1346;51.558;6.996;2022-10-31T00:42:39;101561.31;;;13.55;100.00
2673;BME280;1346;51.558;6.996;2022-10-31T00:45:08;101564.72;;;13.57;100.00
2673;BME280;1346;51.558;6.996;2022-10-31T00:47:35;101578.56;;;13.62;100.00
2673;BME280;1346;51.558;6.996;2022-10-31T00:50:03;101570.88;;;13.67;100.00
2673;BME280;1346;51.558;6.996;2022-10-31T00:52:30;101566.19;;;13.69;100.00
2673;BME280;1346;51.558;6.996;2022-10-31T00:54:59;101568.72;;;13.70;100.00
2673;BME280;1346;51.558;6.996;2022-10-31T00:57:26;101566.03;;;13.70;100.00
2673;BME280;1346;51.558;6.996;2022-10-31T00:59:52;101565.34;;;13.68;100.00
2673;BME280;1346;51.558;6.996;2022-10-31T01:02:19;101559.25;;;13.66;100.00
2673;BME280;1346;51.558;6.996;2022-10-31T01:04:46;101564.78;;;13.65;100.00
2673;BME280;1346;51.558;6.996;2022-10-31T01:07:13;101579.41;;;13.62;100.00
2673;BME280;1346;51.558;6.996;2022-10-31T01:09:40;101575.16;;;13.60;100.00
2673;BME280;1346;51.558;6.996;2022-10-31T01:12:08;101572.47;;;13.60;100.00
2673;BME280;1346;51.558;6.996;2022-10-31T01:14:35;101575.88;;;13.62;100.00
2673;BME280;1346;51.558;6.996;2022-10-31T01:17:02;101586.34;;;13.65;100.00
2673;BME280;1346;51.558;6.996;2022-10-31T01:19:29;101575.56;;;13.65;100.00
2673;BME280;1346;51.558;6.996;2022-10-31T01:21:56;101566.50;;;13.66;100.00
2673;BME280;1346;51.558;6.996;2022-10-31T01:24:23;101563.81;;;13.66;100.00
2673;BME280;1346;51.558;6.996;2022-10-31T01:26:50;101559.72;;;13.62;100.00
2673;BME280;1346;51.558;6.996;2022-10-31T01:29:18;101565.25;;;13.60;100.00
2673;BME280;1346;51.558;6.996;2022-10-31T01:31:45;101561.31;;;13.55;100.00
2673;BME280;1346;51.558;6.996;2022-10-31T01:34:16;101584.28;;;13.49;100.00
2673;BME280;1346;51.558;6.996;2022-10-31T01:36:45;101583.91;;;13.44;100.00
2673;BME280;1346;51.558;6.996;2022-10-31T01:39:14;101584.34;;;13.40;100.00
2673;BME280;1346;51.558;6.996;2022-10-31T01:41:44;101575.88;;;13.34;100.00
2673;BME280;1346;51.558;6.996;2022-10-31T01:45:01;101573.09;;;13.26;100.00
2673;BME280;1346;51.558;6.996;2022-10-31T01:47:42;101564.63;;;13.21;100.00
2673;BME280;1346;51.558;6.996;2022-10-31T01:50:19;101566.91;;;13.16;100.00
2673;BME280;1346;51.558;6.996;2022-10-31T01:52:49;101563.84;;;13.11;100.00
2673;BME280;1346;51.558;6.996;2022-10-31T01:55:23;101572.47;;;13.05;100.00
2673;BME280;1346;51.558;6.996;2022-10-31T01:57:56;101568.50;;;13.00;100.00
2673;BME280;1346;51.558;6.996;2022-10-31T02:00:25;101564.56;;;12.94;100.00
2673;BME280;1346;51.558;6.996;2022-10-31T02:02:52;101571.22;;;12.90;100.00
2673;BME280;1346;51.558;6.996;2022-10-31T02:05:26;101576.91;;;12.87;100.00
2673;BME280;1346;51.558;6.996;2022-10-31T02:07:58;101566.47;;;12.84;100.00
2673;BME280;1346;51.558;6.996;2022-10-31T02:10:26;101565.03;;;12.80;100.00
2673;BME280;1346;51.558;6.996;2022-10-31T02:12:57;101564.34;;;12.78;100.00
2673;BME280;1346;51.558;6.996;2022-10-31T02:15:26;101563.63;;;12.76;100.00
2673;BME280;1346;51.558;6.996;2022-10-31T02:17:53;101554.59;;;12.77;100.00
2673;BME280;1346;51.558;6.996;2022-10-31T02:20:22;101555.41;;;12.78;100.00
2673;BME280;1346;51.558;6.996;2022-10-31T02:23:20;101551.91;;;12.77;100.00
2673;BME280;1346;51.558;6.996;2022-10-31T02:26:16;101563.78;;;12.75;100.00
2673;BME280;1346;51.558;6.996;2022-10-31T02:29:23;101558.84;;;12.70;100.00
2673;BME280;1346;51.558;6.996;2022-10-31T02:32:00;101565.19;;;12.69;100.00
2673;BME280;1346;51.558;6.996;2022-10-31T02:34:34;101568.03;;;12.68;100.00
2673;BME280;1346;51.558;6.996;2022-10-31T02:37:12;101565.66;;;12.65;100.00
2673;BME280;1346;51.558;6.996;2022-10-31T02:39:51;101562.25;;;12.63;100.00
2673;BME280;1346;51.558;6.996;2022-10-31T02:42:28;101562.41;;;12.61;100.00
2673;BME280;1346;51.558;6.996;2022-10-31T02:45:01;101565.38;;;12.58;100.00
2673;BME280;1346;51.558;6.996;2022-10-31T02:47:37;101570.19;;;12.55;100.00
2673;BME280;1346;51.558;6.996;2022-10-31T02:50:08;101564.25;;;12.51;100.00
2673;BME280;1346;51.558;6.996;2022-10-31T02:52:37;101566.25;;;12.49;100.00
2673;BME280;1346;51.558;6.996;2022-10-31T02:55:39;101555.78;;;12.46;100.00
2673;BME280;1346;51.558;6.996;2022-10-31T02:58:02;101553.97;;;12.47;100.00
2673;BME280;1346;51.558;6.996;2022-10-31T03:00:37;101552.41;;;12.44;100.00
2673;BME280;1346;51.558;6.996;2022-10-31T03:03:14;101552.69;;;12.41;100.00
2673;BME280;1346;51.558;6.996;2022-10-31T03:05:53;101554.97;;;12.36;100.00
2673;BME280;1346;51.558;6.996;2022-10-31T03:08:25;101551.72;;;12.33;100.00
2673;BME280;1346;51.558;6.996;2022-10-31T03:10:57;101554.84;;;12.28;100.00
2673;BME280;1346;51.558;6.996;2022-10-31T03:13:31;101549.88;;;12.24;100.00
2673;BME280;1346;51.558;6.996;2022-10-31T03:16:08;101546.78;;;12.18;100.00
2673;BME280;1346;51.558;6.996;2022-10-31T03:18:40;101563.03;;;12.17;100.00
2673;BME280;1346;51.558;6.996;2022-10-31T03:21:13;101562.31;;;12.15;100.00
2673;BME280;1346;51.558;6.996;2022-10-31T03:23:43;101566.00;;;12.14;100.00
2673;BME280;1346;51.558;6.996;2022-10-31T03:26:12;101575.91;;;12.13;100.00
2673;BME280;1346;51.558;6.996;2022-10-31T03:28:45;101572.66;;;12.10;100.00
2673;BME280;1346;51.558;6.996;2022-10-31T03:31:16;101568.41;;;12.07;100.00
2673;BME280;1346;51.558;6.996;2022-10-31T03:33:46;101568.72;;;12.04;100.00
2673;BME280;1346;51.558;6.996;2022-10-31T03:36:16;101557.13;;;12.04;100.00
2673;BME280;1346;51.558;6.996;2022-10-31T03:38:45;101563.50;;;12.03;100.00
2673;BME280;1346;51.558;6.996;2022-10-31T03:41:18;101559.22;;;12.00;100.00
2673;BME280;1346;51.558;6.996;2022-10-31T03:43:55;101562.06;;;11.99;100.00
2673;BME280;1346;51.558;6.996;2022-10-31T03:46:24;101569.56;;;11.95;100.00
2673;BME280;1346;51.558;6.996;2022-10-31T03:48:53;101560.94;;;11.92;100.00
2673;BME280;1346;51.558;6.996;2022-10-31T03:51:24;101566.88;;;11.86;100.00
2673;BME280;1346;51.558;6.996;2022-10-31T03:53:56;101561.75;;;11.83;100.00
2673;BME280;1346;51.558;6.996;2022-10-31T03:56:33;101564.88;;;11.78;100.00
2673;BME280;1346;51.558;6.996;2022-10-31T03:59:05;101570.66;;;11.74;100.00
2673;BME280;1346;51.558;6.996;2022-10-31T04:01:38;101560.91;;;11.73;100.00
2673;BME280;1346;51.558;6.996;2022-10-31T04:04:08;101562.88;;;11.71;100.00
2673;BME280;1346;51.558;6.996;2022-10-31T04:06:37;101567.56;;;11.69;100.00
2673;BME280;1346;51.558;6.996;2022-10-31T04:09:06;101564.88;;;11.69;100.00
2673;BME280;1346;51.558;6.996;2022-10-31T04:11:41;101567.41;;;11.70;100.00
2673;BME280;1346;51.558;6.996;2022-10-31T04:14:11;101569.25;;;11.70;100.00
2673;BME280;1346;51.558;6.996;2022-10-31T04:16:39;101565.56;;;11.71;100.00
2673;BME280;1346;51.558;6.996;2022-10-31T04:19:10;101566.28;;;11.73;100.00
2673;BME280;1346;51.558;6.996;2022-10-31T04:21:37;101567.84;;;11.75;100.00
2673;BME280;1346;51.558;6.996;2022-10-31T04:24:05;101564.88;;;11.78;100.00
2673;BME280;1346;51.558;6.996;2022-10-31T04:26:32;101559.22;;;11.81;100.00
2673;BME280;1346;51.558;6.996;2022-10-31T04:28:59;101561.50;;;11.86;100.00
2673;BME280;1346;51.558;6.996;2022-10-31T04:31:26;101555.84;;;11.89;100.00
2673;BME280;1346;51.558;6.996;2022-10-31T04:33:53;101545.81;;;11.91;100.00
2673;BME280;1346;51.558;6.996;2022-10-31T04:36:21;101543.97;;;11.91;100.00
2673;BME280;1346;51.558;6.996;2022-10-31T04:38:48;101551.88;;;11.93;100.00
2673;BME280;1346;51.558;6.996;2022-10-31T04:41:15;101553.59;;;11.94;100.00
2673;BME280;1346;51.558;6.996;2022-10-31T04:43:41;101550.75;;;11.95;100.00
2673;BME280;1346;51.558;6.996;2022-10-31T04:46:08;101548.94;;;11.96;100.00
2673;BME280;1346;51.558;6.996;2022-10-31T04:48:35;101546.91;;;11.98;100.00
2673;BME280;1346;51.558;6.996;2022-10-31T04:51:03;101538.03;;;11.97;100.00
2673;BME280;1346;51.558;6.996;2022-10-31T04:53:31;101541.44;;;11.99;100.00
2673;BME280;1346;51.558;6.996;2022-10-31T04:55:58;101536.06;;;11.99;100.00
2673;BME280;1346;51.558;6.996;2022-10-31T04:58:26;101547.63;;;12.00;100.00
2673;BME280;1346;51.558;6.996;2022-10-31T05:00:54;101532.38;;;12.00;100.00
2673;BME280;1346;51.558;6.996;2022-10-31T05:03:21;101535.06;;;12.00;100.00
2673;BME280;1346;51.558;6.996;2022-10-31T05:05:48;101539.44;;;12.01;100.00
2673;BME280;1346;51.558;6.996;2022-10-31T05:08:15;101543.13;;;12.00;100.00
2673;BME280;1346;51.558;6.996;2022-10-31T05:10:43;101542.25;;;12.00;100.00
2673;BME280;1346;51.558;6.996;2022-10-31T05:13:10;101545.09;;;11.98;100.00
2673;BME280;1346;51.558;6.996;2022-10-31T05:15:37;101546.38;;;11.94;100.00
2673;BME280;1346;51.558;6.996;2022-10-31T05:18:04;101536.03;;;11.90;100.00
2673;BME280;1346;51.558;6.996;2022-10-31T05:20:32;101540.03;;;11.86;100.00
2673;BME280;1346;51.558;6.996;2022-10-31T05:22:59;101535.63;;;11.85;100.00
2673;BME280;1346;51.558;6.996;2022-10-31T05:25:27;101531.25;;;11.84;100.00
2673;BME280;1346;51.558;6.996;2022-10-31T05:27:56;101518.13;;;11.81;100.00
2673;BME280;1346;51.558;6.996;2022-10-31T05:30:26;101510.88;;;11.81;100.00
2673;BME280;1346;51.558;6.996;2022-10-31T05:32:53;101522.78;;;11.79;100.00
2673;BME280;1346;51.558;6.996;2022-10-31T05:35:22;101517.81;;;11.74;100.00
2673;BME280;1346;51.558;6.996;2022-10-31T05:37:49;101513.72;;;11.70;100.00
2673;BME280;1346;51.558;6.996;2022-10-31T05:40:18;101513.16;;;11.67;100.00
2673;BME280;1346;51.558;6.996;2022-10-31T05:42:46;101504.41;;;11.65;100.00
2673;BME280;1346;51.558;6.996;2022-10-31T05:45:16;101508.09;;;11.64;100.00
2673;BME280;1346;51.558;6.996;2022-10-31T05:47:51;101509.88;;;11.63;100.00
2673;BME280;1346;51.558;6.996;2022-10-31T05:50:18;101512.00;;;11.60;100.00
2673;BME280;1346;51.558;6.996;2022-10-31T05:52:45;101516.50;;;11.59;100.00
2673;BME280;1346;51.558;6.996;2022-10-31T05:55:12;101522.88;;;11.58;100.00
2673;BME280;1346;51.558;6.996;2022-10-31T05:57:39;101512.84;;;11.60;100.00
2673;BME280;1346;51.558;6.996;2022-10-31T06:00:08;101521.88;;;11.59;100.00
2673;BME280;1346;51.558;6.996;2022-10-31T06:02:36;101528.81;;;11.62;100.00
2673;BME280;1346;51.558;6.996;2022-10-31T06:05:04;101512.69;;;11.62;100.00
2673;BME280;1346;51.558;6.996;2022-10-31T06:07:34;101517.94;;;11.63;100.00
2673;BME280;1346;51.558;6.996;2022-10-31T06:10:03;101509.75;;;11.65;100.00
2673;BME280;1346;51.558;6.996;2022-10-31T06:12:31;101510.75;;;11.64;100.00
2673;BME280;1346;51.558;6.996;2022-10-31T06:14:58;101507.19;;;11.63;100.00
2673;BME280;1346;51.558;6.996;2022-10-31T06:17:24;101514.53;;;11.61;100.00
2673;BME280;1346;51.558;6.996;2022-10-31T06:19:53;101512.00;;;11.60;100.00
2673;BME280;1346;51.558;6.996;2022-10-31T06:22:19;101513.97;;;11.58;100.00
2673;BME280;1346;51.558;6.996;2022-10-31T06:24:46;101517.66;;;11.57;100.00
2673;BME280;1346;51.558;6.996;2022-10-31T06:27:13;101515.09;;;11.55;100.00
2673;BME280;1346;51.558;6.996;2022-10-31T06:29:40;101507.06;;;11.55;100.00
2673;BME280;1346;51.558;6.996;2022-10-31T06:32:10;101515.09;;;11.55;100.00
2673;BME280;1346;51.558;6.996;2022-10-31T06:34:37;101515.09;;;11.55;100.00
2673;BME280;1346;51.558;6.996;2022-10-31T06:37:07;101515.94;;;11.56;100.00
2673;BME280;1346;51.558;6.996;2022-10-31T06:39:34;101510.72;;;11.54;100.00
2673;BME280;1346;51.558;6.996;2022-10-31T06:42:01;101516.06;;;11.54;100.00
2673;BME280;1346;51.558;6.996;2022-10-31T06:44:28;101524.97;;;11.55;100.00
2673;BME280;1346;51.558;6.996;2022-10-31T06:46:55;101525.69;;;11.57;100.00
2673;BME280;1346;51.558;6.996;2022-10-31T06:49:22;101518.22;;;11.60;100.00
2673;BME280;1346;51.558;6.996;2022-10-31T06:51:49;101516.22;;;11.62;100.00
2673;BME280;1346;51.558;6.996;2022-10-31T06:54:18;101523.19;;;11.65;100.00
2673;BME280;1346;51.558;6.996;2022-10-31T06:56:46;101526.44;;;11.68;100.00
2673;BME280;1346;51.558;6.996;2022-10-31T06:59:13;101528.44;;;11.76;100.00
2673;BME280;1346;51.558;6.996;2022-10-31T07:01:40;101534.34;;;11.79;100.00
2673;BME280;1346;51.558;6.996;2022-10-31T07:04:08;101535.91;;;11.82;100.00
2673;BME280;1346;51.558;6.996;2022-10-31T07:06:35;101536.47;;;11.85;100.00
2673;BME280;1346;51.558;6.996;2022-10-31T07:09:02;101530.81;;;11.88;100.00
2673;BME280;1346;51.558;6.996;2022-10-31T07:11:30;101534.06;;;11.92;100.00
2673;BME280;1346;51.558;6.996;2022-10-31T07:13:57;101540.16;;;11.94;100.00
2673;BME280;1346;51.558;6.996;2022-10-31T07:16:24;101538.88;;;11.98;100.00
2673;BME280;1346;51.558;6.996;2022-10-31T07:18:51;101543.69;;;12.04;100.00
2673;BME280;1346;51.558;6.996;2022-10-31T07:21:18;101545.09;;;12.08;100.00
2673;BME280;1346;51.558;6.996;2022-10-31T07:23:47;101544.66;;;12.12;100.00
2673;BME280;1346;51.558;6.996;2022-10-31T07:26:15;101546.50;;;12.12;100.00
2673;BME280;1346;51.558;6.996;2022-10-31T07:28:43;101548.22;;;12.13;100.00
2673;BME280;1346;51.558;6.996;2022-10-31T07:31:10;101537.31;;;12.14;100.00
2673;BME280;1346;51.558;6.996;2022-10-31T07:33:37;101538.84;;;12.17;100.00
2673;BME280;1346;51.558;6.996;2022-10-31T07:36:04;101530.81;;;12.17;100.00
2673;BME280;1346;51.558;6.996;2022-10-31T07:38:31;101543.13;;;12.20;100.00
2673;BME280;1346;51.558;6.996;2022-10-31T07:40:58;101540.28;;;12.21;100.00
2673;BME280;1346;51.558;6.996;2022-10-31T07:43:25;101533.91;;;12.22;100.00
2673;BME280;1346;51.558;6.996;2022-10-31T07:45:53;101524.72;;;12.25;100.00
2673;BME280;1346;51.558;6.996;2022-10-31T07:48:21;101537.16;;;12.26;100.00
2673;BME280;1346;51.558;6.996;2022-10-31T07:50:48;101528.78;;;12.29;100.00
2673;BME280;1346;51.558;6.996;2022-10-31T07:53:15;101533.75;;;12.33;100.00
2673;BME280;1346;51.558;6.996;2022-10-31T07:55:42;101539.69;;;12.37;100.00
2673;BME280;1346;51.558;6.996;2022-10-31T07:58:11;101531.91;;;12.43;100.00
2673;BME280;1346;51.558;6.996;2022-10-31T08:00:42;101531.31;;;12.49;100.00
2673;BME280;1346;51.558;6.996;2022-10-31T08:03:13;101526.19;;;12.56;100.00
2673;BME280;1346;51.558;6.996;2022-10-31T08:05:40;101530.16;;;12.61;100.00
2673;BME280;1346;51.558;6.996;2022-10-31T08:08:08;101536.47;;;12.70;100.00
2673;BME280;1346;51.558;6.996;2022-10-31T08:10:36;101535.06;;;12.75;100.00
2673;BME280;1346;51.558;6.996;2022-10-31T08:13:05;101532.78;;;12.80;100.00
2673;BME280;1346;51.558;6.996;2022-10-31T08:15:33;101536.56;;;12.87;100.00
2673;BME280;1346;51.558;6.996;2022-10-31T08:18:04;101538.81;;;12.92;100.00
2673;BME280;1346;51.558;6.996;2022-10-31T08:20:32;101536.38;;;12.98;100.00
2673;BME280;1346;51.558;6.996;2022-10-31T08:23:01;101542.88;;;13.05;100.00
2673;BME280;1346;51.558;6.996;2022-10-31T08:25:30;101546.84;;;13.11;100.00
2673;BME280;1346;51.558;6.996;2022-10-31T08:27:58;101550.94;;;13.15;100.00
2673;BME280;1346;51.558;6.996;2022-10-31T08:30:27;101548.75;;;13.18;100.00
2673;BME280;1346;51.558;6.996;2022-10-31T08:33:00;101547.31;;;13.24;100.00
2673;BME280;1346;51.558;6.996;2022-10-31T08:35:27;101539.50;;;13.30;100.00
2673;BME280;1346;51.558;6.996;2022-10-31T08:37:56;101546.97;;;13.37;100.00
2673;BME280;1346;51.558;6.996;2022-10-31T08:40:24;101542.16;;;13.40;100.00
2673;BME280;1346;51.558;6.996;2022-10-31T08:42:59;101541.53;;;13.46;100.00
2673;BME280;1346;51.558;6.996;2022-10-31T08:45:27;101544.63;;;13.51;100.00
2673;BME280;1346;51.558;6.996;2022-10-31T08:47:57;101535.25;;;13.55;100.00
2673;BME280;1346;51.558;6.996;2022-10-31T08:50:25;101525.72;;;13.61;100.00
2673;BME280;1346;51.558;6.996;2022-10-31T08:52:52;101532.16;;;13.68;100.00
2673;BME280;1346;51.558;6.996;2022-10-31T08:55:21;101521.81;;;13.73;100.00
2673;BME280;1346;51.558;6.996;2022-10-31T08:57:48;101519.34;;;13.79;100.00
2673;BME280;1346;51.558;6.996;2022-10-31T09:00:15;101517.84;;;13.85;100.00
2673;BME280;1346;51.558;6.996;2022-10-31T09:02:42;101518.78;;;13.93;100.00
2673;BME280;1346;51.558;6.996;2022-10-31T09:05:08;101512.63;;;14.01;100.00
2673;BME280;1346;51.558;6.996;2022-10-31T09:07:35;101511.31;;;14.05;100.00
2673;BME280;1346;51.558;6.996;2022-10-31T09:10:02;101503.63;;;14.10;100.00
2673;BME280;1346;51.558;6.996;2022-10-31T09:12:31;101505.50;;;14.17;100.00
2673;BME280;1346;51.558;6.996;2022-10-31T09:14:58;101510.28;;;14.23;100.00
2673;BME280;1346;51.558;6.996;2022-10-31T09:17:26;101513.59;;;14.35;100.00
2673;BME280;1346;51.558;6.996;2022-10-31T09:19:54;101507.25;;;14.44;100.00
2673;BME280;1346;51.558;6.996;2022-10-31T09:22:21;101504.47;;;14.53;100.00
2673;BME280;1346;51.558;6.996;2022-10-31T09:24:48;101505.88;;;14.66;100.00
2673;BME280;1346;51.558;6.996;2022-10-31T09:27:15;101502.72;;;14.78;100.00
2673;BME280;1346;51.558;6.996;2022-10-31T09:29:43;101499.78;;;14.89;100.00
2673;BME280;1346;51.558;6.996;2022-10-31T09:32:10;101496.13;;;14.98;100.00
2673;BME280;1346;51.558;6.996;2022-10-31T09:34:37;101494.44;;;15.05;100.00
2673;BME280;1346;51.558;6.996;2022-10-31T09:37:04;101485.69;;;15.11;100.00
2673;BME280;1346;51.558;6.996;2022-10-31T09:39:31;101482.31;;;15.17;100.00
2673;BME280;1346;51.558;6.996;2022-10-31T09:42:23;101479.97;;;15.22;100.00
2673;BME280;1346;51.558;6.996;2022-10-31T09:45:03;101482.56;;;15.32;100.00
2673;BME280;1346;51.558;6.996;2022-10-31T09:47:45;101476.50;;;15.38;100.00
2673;BME280;1346;51.558;6.996;2022-10-31T09:50:20;101482.28;;;15.43;100.00
2673;BME280;1346;51.558;6.996;2022-10-31T09:53:02;101469.13;;;15.48;100.00
2673;BME280;1346;51.558;6.996;2022-10-31T09:55:36;101464.56;;;15.56;100.00
2673;BME280;1346;51.558;6.996;2022-10-31T09:58:03;101471.69;;;15.65;100.00
2673;BME280;1346;51.558;6.996;2022-10-31T10:00:32;101469.66;;;15.76;100.00
2673;BME280;1346;51.558;6.996;2022-10-31T10:03:10;101465.28;;;15.83;100.00
2673;BME280;1346;51.558;6.996;2022-10-31T10:05:43;101463.44;;;15.91;100.00
2673;BME280;1346;51.558;6.996;2022-10-31T10:08:17;101465.59;;;15.96;100.00
2673;BME280;1346;51.558;6.996;2022-10-31T10:10:59;101462.38;;;16.00;100.00
2673;BME280;1346;51.558;6.996;2022-10-31T10:13:44;101455.81;;;16.03;100.00
2673;BME280;1346;51.558;6.996;2022-10-31T10:16:32;101454.28;;;16.08;100.00
2673;BME280;1346;51.558;6.996;2022-10-31T10:19:20;101449.38;;;16.20;100.00
2673;BME280;1346;51.558;6.996;2022-10-31T10:21:56;101434.63;;;16.38;100.00
2673;BME280;1346;51.558;6.996;2022-10-31T10:24:39;101437.31;;;16.62;100.00
2673;BME280;1346;51.558;6.996;2022-10-31T10:27:17;101437.88;;;16.88;100.00
2673;BME280;1346;51.558;6.996;2022-10-31T10:29:56;101435.41;;;17.10;100.00
2673;BME280;1346;51.558;6.996;2022-10-31T10:32:28;101451.22;;;17.29;100.00
2673;BME280;1346;51.558;6.996;2022-10-31T10:35:04;101435.38;;;17.40;100.00
2673;BME280;1346;51.558;6.996;2022-10-31T10:37:40;101441.25;;;17.52;100.00
2673;BME280;1346;51.558;6.996;2022-10-31T10:40:15;101441.56;;;17.57;100.00
2673;BME280;1346;51.558;6.996;2022-10-31T10:42:45;101434.94;;;17.59;100.00
2673;BME280;1346;51.558;6.996;2022-10-31T10:45:34;101428.50;;;17.60;100.00
2673;BME280;1346;51.558;6.996;2022-10-31T10:48:31;101429.53;;;17.59;100.00
2673;BME280;1346;51.558;6.996;2022-10-31T10:51:06;101419.69;;;17.58;100.00
2673;BME280;1346;51.558;6.996;2022-10-31T10:53:51;101410.19;;;17.62;100.00
2673;BME280;1346;51.558;6.996;2022-10-31T10:56:39;101404.03;;;17.68;100.00
2673;BME280;1346;51.558;6.996;2022-10-31T10:59:12;101403.69;;;17.71;100.00
2673;BME280;1346;51.558;6.996;2022-10-31T11:01:40;101397.78;;;17.68;100.00
2673;BME280;1346;51.558;6.996;2022-10-31T11:04:30;101396.47;;;17.64;100.00
2673;BME280;1346;51.558;6.996;2022-10-31T11:07:03;101385.16;;;17.60;100.00
2673;BME280;1346;51.558;6.996;2022-10-31T11:09:32;101382.63;;;17.59;100.00
2673;BME280;1346;51.558;6.996;2022-10-31T11:12:07;101382.44;;;17.60;100.00
2673;BME280;1346;51.558;6.996;2022-10-31T11:14:42;101377.31;;;17.65;100.00
2673;BME280;1346;51.558;6.996;2022-10-31T11:17:23;101363.34;;;17.76;100.00
2673;BME280;1346;51.558;6.996;2022-10-31T11:20:04;101351.84;;;17.89;100.00
2673;BME280;1346;51.558;6.996;2022-10-31T11:22:32;101346.53;;;17.95;100.00
2673;BME280;1346;51.558;6.996;2022-10-31T11:24:59;101348.50;;;18.01;100.00
2673;BME280;1346;51.558;6.996;2022-10-31T11:27:26;101340.00;;;18.04;100.00
2673;BME280;1346;51.558;6.996;2022-10-31T11:30:05;101337.75;;;18.08;100.00
2673;BME280;1346;51.558;6.996;2022-10-31T11:32:32;101334.84;;;18.09;100.00
2673;BME280;1346;51.558;6.996;2022-10-31T11:35:07;101321.38;;;18.16;100.00
2673;BME280;1346;51.558;6.996;2022-10-31T11:37:42;101326.28;;;18.21;100.00
2673;BME280;1346;51.558;6.996;2022-10-31T11:40:18;101318.94;;;18.21;100.00
2673;BME280;1346;51.558;6.996;2022-10-31T11:42:46;101328.41;;;18.25;100.00
2673;BME280;1346;51.558;6.996;2022-10-31T11:45:17;101322.41;;;18.30;100.00
2673;BME280;1346;51.558;6.996;2022-10-31T11:47:49;101322.13;;;18.39;100.00
2673;BME280;1346;51.558;6.996;2022-10-31T11:50:22;101324.00;;;18.53;100.00
2673;BME280;1346;51.558;6.996;2022-10-31T11:52:50;101320.81;;;18.64;100.00
2673;BME280;1346;51.558;6.996;2022-10-31T11:55:32;101320.50;;;18.74;100.00
2673;BME280;1346;51.558;6.996;2022-10-31T11:57:59;101310.69;;;18.73;100.00
2673;BME280;1346;51.558;6.996;2022-10-31T12:00:29;101307.31;;;18.71;100.00
2673;BME280;1346;51.558;6.996;2022-10-31T12:03:15;101294.22;;;18.74;100.00
2673;BME280;1346;51.558;6.996;2022-10-31T12:05:56;101281.69;;;18.73;100.00
2673;BME280;1346;51.558;6.996;2022-10-31T12:08:29;101289.63;;;18.75;100.00
2673;BME280;1346;51.558;6.996;2022-10-31T12:11:05;101299.63;;;18.74;100.00
2673;BME280;1346;51.558;6.996;2022-10-31T12:13:37;101303.47;;;18.80;100.00
2673;BME280;1346;51.558;6.996;2022-10-31T12:16:15;101300.94;;;18.78;100.00
2673;BME280;1346;51.558;6.996;2022-10-31T12:18:56;101293.22;;;18.82;100.00
2673;BME280;1346;51.558;6.996;2022-10-31T12:24:33;101259.63;;;18.83;100.00
2673;BME280;1346;51.558;6.996;2022-10-31T12:27:13;101254.59;;;18.80;100.00
2673;BME280;1346;51.558;6.996;2022-10-31T12:30:15;101251.44;;;18.76;100.00
2673;BME280;1346;51.558;6.996;2022-10-31T12:33:14;101250.53;;;18.69;100.00
2673;BME280;1346;51.558;6.996;2022-10-31T12:35:54;101250.06;;;18.66;100.00
2673;BME280;1346;51.558;6.996;2022-10-31T12:38:46;101241.06;;;18.65;100.00
2673;BME280;1346;51.558;6.996;2022-10-31T12:41:34;101246.50;;;18.65;100.00
2673;BME280;1346;51.558;6.996;2022-10-31T12:44:06;101240.88;;;18.67;100.00
2673;BME280;1346;51.558;6.996;2022-10-31T12:47:01;101229.25;;;18.73;100.00
2673;BME280;1346;51.558;6.996;2022-10-31T12:49:44;101230.78;;;18.82;100.00
2673;BME280;1346;51.558;6.996;2022-10-31T12:52:32;101224.88;;;18.93;100.00
2673;BME280;1346;51.558;6.996;2022-10-31T12:55:18;101208.44;;;19.01;100.00
2673;BME280;1346;51.558;6.996;2022-10-31T12:57:50;101204.75;;;19.08;100.00
2673;BME280;1346;51.558;6.996;2022-10-31T13:00:19;101200.00;;;19.17;100.00
2673;BME280;1346;51.558;6.996;2022-10-31T13:02:51;101193.34;;;19.19;100.00
2673;BME280;1346;51.558;6.996;2022-10-31T13:05:26;101183.13;;;19.21;100.00
2673;BME280;1346;51.558;6.996;2022-10-31T13:07:59;101183.00;;;19.30;100.00
2673;BME280;1346;51.558;6.996;2022-10-31T13:10:34;101180.72;;;19.33;100.00
2673;BME280;1346;51.558;6.996;2022-10-31T13:13:10;101163.88;;;19.44;100.00
2673;BME280;1346;51.558;6.996;2022-10-31T13:15:47;101162.28;;;19.56;100.00
2673;BME280;1346;51.558;6.996;2022-10-31T13:18:25;101160.03;;;19.66;100.00
2673;BME280;1346;51.558;6.996;2022-10-31T13:20:55;101161.59;;;19.82;100.00
2673;BME280;1346;51.558;6.996;2022-10-31T13:23:29;101157.22;;;19.87;100.00
2673;BME280;1346;51.558;6.996;2022-10-31T13:26:08;101154.91;;;19.84;100.00